createdAt,value
2023-01-05T00:04:51.983Z,132.95706
2023-01-05T00:09:53.732Z,131.80488
2023-01-05T00:14:55.575Z,132.3792
2023-01-05T00:19:57.310Z,128.98498
2023-01-05T00:24:58.942Z,125.17647
2023-01-05T00:30:00.625Z,121.52161
2023-01-05T00:35:02.397Z,117.03371
2023-01-05T00:40:03.921Z,113.69697
2023-01-05T00:45:05.651Z,112.30601
2023-01-05T00:50:07.317Z,117.52113
2023-01-05T00:55:09.007Z,121.01149
2023-01-05T01:00:10.871Z,117.52113
2023-01-05T01:05:12.578Z,122.03468
2023-01-05T01:10:14.066Z,123.59184
2023-01-05T01:15:15.687Z,122.03468
2023-01-05T01:20:17.399Z,122.03468
2023-01-05T01:25:18.904Z,122.55072
2023-01-05T01:30:20.491Z,122.03468
2023-01-05T01:35:22.528Z,119
2023-01-05T01:40:23.971Z,115.11111
2023-01-05T01:45:25.477Z,121.01149
2023-01-05T01:50:27.059Z,123.59184
2023-01-05T01:55:28.586Z,125.71091
2023-01-05T02:00:30.305Z,113.23077
2023-01-05T02:05:32.270Z,120.5043
2023-01-05T02:10:33.967Z,119
2023-01-05T02:15:35.723Z,116.54902
2023-01-05T02:20:37.612Z,113.69697
2023-01-05T02:25:39.430Z,113.69697
2023-01-05T02:30:41.221Z,109.5914
2023-01-05T02:35:43.224Z,109.14745
2023-01-05T02:40:45.048Z,106.53298
2023-01-05T02:45:47.176Z,107.82979
2023-01-05T02:50:48.959Z,105.25654
2023-01-05T02:55:50.737Z,105.25654
2023-01-05T03:00:52.536Z,105.67979
2023-01-05T03:05:55.207Z,105.25654
2023-01-05T03:10:57.011Z,104.83551
2023-01-05T03:15:58.884Z,106.53298
2023-01-05T03:21:00.765Z,109.14745
2023-01-05T03:26:02.530Z,110.03774
2023-01-05T03:31:04.401Z,110.93767
2023-01-05T03:36:06.429Z,114.63712
2023-01-05T03:41:08.239Z,113.23077
2023-01-05T03:46:10.190Z,112.76712
2023-01-05T03:51:12.049Z,113.23077
2023-01-05T03:56:13.605Z,110.48649
2023-01-05T04:01:15.216Z,113.23077
2023-01-05T04:06:17.149Z,119.49858
2023-01-05T04:11:18.872Z,113.23077
2023-01-05T04:16:20.750Z,112.76712
2023-01-05T04:21:22.239Z,112.76712
2023-01-05T04:26:23.829Z,111.3913
2023-01-05T04:31:25.716Z,110.93767
2023-01-05T04:36:27.741Z,110.48649
2023-01-05T04:41:29.608Z,108.26667
2023-01-05T04:46:31.444Z,107.39523
2023-01-05T04:51:33.285Z,119
2023-01-05T04:56:35.142Z,113.69697
2023-01-05T05:01:37.084Z,124.64516
2023-01-05T05:06:39.149Z,124.64516
2023-01-05T05:11:41.020Z,137.10345
2023-01-05T05:16:43.013Z,141.4359
2023-01-05T05:21:44.817Z,138.32177
2023-01-05T05:26:46.593Z,134.12346
2023-01-05T05:31:48.467Z,136.5
2023-01-05T05:36:50.550Z,148.65116
2023-01-05T05:41:52.333Z,142.70968
2023-01-05T05:46:54.092Z,138.32177
2023-01-05T05:51:55.789Z,138.32177
2023-01-05T05:56:57.360Z,133.53846
2023-01-05T06:01:59.248Z,140.17834
2023-01-05T06:07:01.083Z,122.55072
2023-01-05T06:12:02.600Z,126.78932
2023-01-05T06:17:04.441Z,138.93671
2023-01-05T06:22:05.980Z,121.52161
2023-01-05T06:27:07.536Z,131.80488
2023-01-05T06:32:09.255Z,131.23404
2023-01-05T06:37:10.977Z,129.54217
2023-01-05T06:42:12.510Z,134.12346
2023-01-05T06:47:14.084Z,128.98498
2023-01-05T06:52:16.909Z,128.43114
2023-01-05T06:57:18.734Z,132.95706
2023-01-05T07:02:20.568Z,142.07074
2023-01-05T07:07:22.595Z,153.52381
2023-01-05T07:12:24.129Z,150.02007
2023-01-05T07:17:25.765Z,147.30033
2023-01-05T07:22:27.562Z,149.33333
2023-01-05T07:27:29.113Z,153.52381
2023-01-05T07:32:30.687Z,167.18841
2023-01-05T07:37:32.353Z,150.71141
2023-01-05T07:42:34.334Z,148.65116
2023-01-05T07:47:35.940Z,147.97351
2023-01-05T07:52:37.497Z,139.55556
2023-01-05T07:57:39.149Z,125.17647
2023-01-05T08:02:40.865Z,124.64516
2023-01-05T08:07:42.499Z,126.78932
2023-01-05T08:12:44.296Z,138.93671
2023-01-05T08:17:46.070Z,131.23404
2023-01-05T08:22:47.817Z,147.30033
2023-01-05T08:27:49.602Z,135.30435
2023-01-05T08:32:51.535Z,147.30033
2023-01-05T08:37:53.637Z,164.78853
2023-01-05T08:42:55.116Z,190.4
2023-01-05T08:47:56.991Z,190.4
2023-01-05T08:52:58.617Z,192.3871
2023-01-05T08:58:00.221Z,191.38956
2023-01-05T09:03:02.197Z,190.4
2023-01-05T09:08:04.605Z,212.99563
2023-01-05T09:13:06.137Z,211.82609
2023-01-05T09:18:07.928Z,226.56881
2023-01-05T09:23:09.625Z,226.56881
2023-01-05T09:28:11.254Z,220.23318
2023-01-05T09:33:12.859Z,221.47748
2023-01-05T09:38:15.069Z,217.77778
2023-01-05T09:43:16.575Z,180.01533
2023-01-05T09:48:18.254Z,172.14815
2023-01-05T09:53:19.808Z,217.77778
2023-01-05T09:58:26.264Z,190.4
2023-01-05T10:04:02.324Z,209.51724
2023-01-05T10:09:04.987Z,212.99563
2023-01-05T10:14:06.758Z,224
2023-01-05T10:19:08.457Z,210.66667
2023-01-05T10:24:10.135Z,216.56637
2023-01-05T10:29:11.823Z,237.33333
2023-01-05T10:39:31.401Z,190.4
2023-01-05T10:44:33.167Z,191.38956
2023-01-05T10:49:34.926Z,197.49794
2023-01-05T10:54:36.724Z,212.99563
2023-01-05T10:59:38.532Z,206.12766
2023-01-05T11:04:40.072Z,191.38956
2023-01-05T11:20:02.407Z,193.39271
2023-01-05T11:25:04.203Z,193.39271
2023-01-05T11:40:26.816Z,187.47826
2023-01-05T11:45:28.321Z,175.57895
2023-01-05T11:50:30.165Z,178.22053
2023-01-05T11:55:31.640Z,197.49794
2023-01-05T12:00:33.291Z,188.44444
2023-01-05T12:05:34.759Z,199.60166
2023-01-05T12:10:36.309Z,222.73303
2023-01-05T12:15:37.914Z,195.42857
2023-01-05T12:20:39.478Z,195.42857
2023-01-05T12:25:41.044Z,194.4065
2023-01-05T12:36:14.785Z,208.37768
2023-01-05T12:41:16.508Z,200.66667
2023-01-05T12:46:18.074Z,200.66667
2023-01-05T12:51:19.691Z,233.20188
2023-01-05T12:56:21.289Z,225.27854
2023-01-05T13:01:22.904Z,237.33333
2023-01-05T13:06:24.543Z,247.44828
2023-01-05T13:11:26.144Z,230.51163
2023-01-05T13:16:27.603Z,237.33333
2023-01-05T13:21:29.476Z,226.56881
2023-01-05T13:26:37.491Z,210.66667
2023-01-05T13:31:40.145Z,237.33333
2023-01-05T13:36:41.843Z,237.33333
2023-01-05T13:41:43.555Z,205.01695
2023-01-05T13:46:45.331Z,203.91561
2023-01-05T13:51:47.035Z,196.45902
2023-01-05T13:56:48.713Z,210.66667
2023-01-05T14:01:50.323Z,187.47826
2023-01-05T14:06:52.124Z,184.625
2023-01-05T14:11:53.891Z,182.75969
2023-01-05T14:16:55.695Z,186.51969
2023-01-05T14:21:57.504Z,176.45283
2023-01-05T14:26:59.292Z,167.18841
2023-01-05T14:32:01.042Z,170.47059
2023-01-05T14:37:02.854Z,183.68872
2023-01-05T14:42:04.743Z,158.63415
2023-01-05T14:47:06.579Z,159.38462
2023-01-05T14:52:08.328Z,178.22053
2023-01-05T14:57:10.155Z,174.71161
2023-01-05T15:02:11.934Z,155.68385
2023-01-05T15:07:13.714Z,160.14035
2023-01-05T15:12:15.486Z,167.18841
2023-01-05T15:17:16.994Z,172.14815
2023-01-05T15:22:36.359Z,185.56863
2023-01-05T15:27:38.903Z,189.41833
2023-01-05T15:32:40.681Z,190.4
2023-01-05T15:37:42.242Z,217.77778
2023-01-05T15:42:43.725Z,212.99563
2023-01-05T15:47:45.493Z,226.56881
2023-01-05T15:52:47.274Z,205.01695
2023-01-05T15:57:49.290Z,197.49794
2023-01-05T16:02:51.068Z,200.66667
2023-01-05T16:07:52.887Z,200.66667
2023-01-05T16:12:54.676Z,198.54545
2023-01-05T16:17:56.431Z,182.75969
2023-01-05T16:23:01.264Z,180.92308
2023-01-05T16:28:08.194Z,173.85075
2023-01-05T16:33:09.792Z,182.75969
2023-01-05T16:38:11.268Z,184.625
2023-01-05T16:43:13.165Z,199.60166
2023-01-05T16:48:14.982Z,184.625
2023-01-05T16:53:16.692Z,193.39271
2023-01-05T16:58:18.318Z,196.45902
2023-01-05T17:03:19.825Z,193.39271
2023-01-05T17:08:21.321Z,189.41833
2023-01-05T17:13:22.936Z,182.75969
2023-01-05T17:18:24.440Z,187.47826
2023-01-05T17:23:25.959Z,174.71161
2023-01-05T17:28:27.739Z,179.1145
2023-01-05T17:33:29.379Z,183.68872
2023-01-05T17:38:30.900Z,185.56863
2023-01-05T17:43:33.198Z,199.60166
2023-01-05T17:48:34.924Z,191.38956
2023-01-05T17:53:36.798Z,182.75969
2023-01-05T17:58:38.590Z,194.4065
2023-01-05T18:03:40.500Z,191.38956
2023-01-05T18:13:44.235Z,182.75969
2023-01-05T18:18:46.099Z,177.33333
2023-01-05T18:23:47.892Z,177.33333
2023-01-05T18:28:49.742Z,177.33333
2023-01-05T18:33:51.520Z,172.14815
2023-01-05T18:38:53.283Z,171.30627
2023-01-05T18:43:55.091Z,165.58273
2023-01-05T18:48:56.765Z,175.57895
2023-01-05T18:53:58.559Z,180.92308
2023-01-05T18:59:00.380Z,167.18841
2023-01-05T19:04:02.224Z,159.38462
2023-01-05T19:09:04.056Z,162.43972
2023-01-05T19:14:06.090Z,164.78853
2023-01-05T19:19:07.799Z,155.68385
2023-01-05T19:24:09.588Z,157.88889
2023-01-05T19:29:11.519Z,151.40741
2023-01-05T19:34:13.249Z,151.40741
2023-01-05T19:39:14.967Z,149.33333
2023-01-05T19:44:16.916Z,146.63158
2023-01-05T19:49:18.531Z,145.30719
2023-01-05T19:54:20.371Z,146.63158
2023-01-05T19:59:22.223Z,144
2023-01-05T20:04:23.746Z,142.07074
2023-01-05T20:09:26.186Z,142.70968
2023-01-05T20:14:29.886Z,141.4359
2023-01-05T20:19:33.463Z,135.90031
2023-01-05T20:24:35.335Z,140.17834
2023-01-05T20:29:38.986Z,139.55556
2023-01-05T20:34:40.788Z,138.93671
2023-01-05T20:39:43.636Z,140.17834
2023-01-05T20:44:45.312Z,132.3792
2023-01-05T20:49:46.841Z,139.55556
2023-01-05T20:54:48.628Z,173.85075
2023-01-05T20:59:50.391Z,184.625
2023-01-05T21:04:52.234Z,211.82609
2023-01-05T21:09:54.041Z,234.56604
2023-01-05T21:14:56.188Z,252
2023-01-05T21:19:58.606Z,261.52577
2023-01-05T21:25:00.293Z,250.46766
2023-01-05T21:30:02.139Z,258.28571
2023-01-05T21:35:04.612Z,241.58454
2023-01-05T21:40:06.423Z,238.73684
2023-01-05T21:45:08.537Z,229.18519
2023-01-05T21:50:10.032Z,131.80488
2023-01-05T21:55:11.795Z,119.49858
2023-01-05T22:00:13.661Z,130.66667
2023-01-05T22:05:15.303Z,160.90141
2023-01-05T22:10:16.929Z,210.66667
2023-01-05T22:15:18.716Z,237.33333
2023-01-05T22:20:20.320Z,226.56881
2023-01-05T22:25:21.885Z,261.52577
2023-01-05T22:30:23.658Z,244.4878
2023-01-05T22:35:25.216Z,256.69036
2023-01-05T22:40:26.807Z,259.89744
2023-01-05T22:45:28.853Z,237.33333
2023-01-05T22:50:30.498Z,216.56637
2023-01-05T22:55:32.125Z,212.99563
2023-01-05T23:00:33.674Z,222.73303
2023-01-05T23:05:35.211Z,230.51163
2023-01-05T23:10:36.782Z,221.47748
2023-01-05T23:15:38.560Z,234.56604
2023-01-05T23:20:40.088Z,234.56604
2023-01-05T23:25:41.708Z,241.58454
2023-01-05T23:30:43.533Z,253.54774
2023-01-05T23:35:45.107Z,238.73684
2023-01-05T23:40:46.569Z,235.94313
2023-01-05T23:45:48.231Z,230.51163
2023-01-05T23:50:49.741Z,240.15385
2023-01-05T23:55:51.331Z,221.47748
